sensor_id;sensor_type;location;lat;lon;timestamp;temperature;humidity
5011;DHT22;2524;54.364;10.072;2024-02-23T00:01:46;10.90;99.90
5011;DHT22;2524;54.364;10.072;2024-02-23T00:04:12;10.70;99.90
5011;DHT22;2524;54.364;10.072;2024-02-23T00:06:38;10.80;99.90
5011;DHT22;2524;54.364;10.072;2024-02-23T00:09:03;10.70;99.90
5011;DHT22;2524;54.364;10.072;2024-02-23T00:11:30;10.60;99.90
5011;DHT22;2524;54.364;10.072;2024-02-23T00:13:55;10.60;99.90
5011;DHT22;2524;54.364;10.072;2024-02-23T00:16:21;10.40;99.90
5011;DHT22;2524;54.364;10.072;2024-02-23T00:18:47;10.40;99.90
5011;DHT22;2524;54.364;10.072;2024-02-23T00:21:12;10.20;99.90
5011;DHT22;2524;54.364;10.072;2024-02-23T00:23:38;10.20;99.90
5011;DHT22;2524;54.364;10.072;2024-02-23T00:26:03;10.20;99.90
5011;DHT22;2524;54.364;10.072;2024-02-23T00:28:29;10.10;99.90
5011;DHT22;2524;54.364;10.072;2024-02-23T00:30:54;10.00;99.90
5011;DHT22;2524;54.364;10.072;2024-02-23T00:33:20;10.00;99.90
5011;DHT22;2524;54.364;10.072;2024-02-23T00:35:46;9.90;99.90
5011;DHT22;2524;54.364;10.072;2024-02-23T00:38:11;10.00;99.90
5011;DHT22;2524;54.364;10.072;2024-02-23T00:40:37;10.00;99.90
5011;DHT22;2524;54.364;10.072;2024-02-23T00:43:04;9.80;99.90
5011;DHT22;2524;54.364;10.072;2024-02-23T00:45:29;9.80;99.90
5011;DHT22;2524;54.364;10.072;2024-02-23T00:47:55;9.70;99.90
5011;DHT22;2524;54.364;10.072;2024-02-23T00:50:22;9.60;99.90
5011;DHT22;2524;54.364;10.072;2024-02-23T00:52:49;9.70;99.90
5011;DHT22;2524;54.364;10.072;2024-02-23T00:55:14;9.40;99.90
5011;DHT22;2524;54.364;10.072;2024-02-23T00:57:40;9.40;99.90
5011;DHT22;2524;54.364;10.072;2024-02-23T01:00:06;9.20;99.90
5011;DHT22;2524;54.364;10.072;2024-02-23T01:02:32;9.10;99.90
5011;DHT22;2524;54.364;10.072;2024-02-23T01:05:00;8.90;99.90
5011;DHT22;2524;54.364;10.072;2024-02-23T01:07:26;8.90;99.90
5011;DHT22;2524;54.364;10.072;2024-02-23T01:09:51;8.60;99.90
5011;DHT22;2524;54.364;10.072;2024-02-23T01:12:17;8.50;99.90
5011;DHT22;2524;54.364;10.072;2024-02-23T01:14:43;8.50;99.90
5011;DHT22;2524;54.364;10.072;2024-02-23T01:17:08;8.40;99.90
5011;DHT22;2524;54.364;10.072;2024-02-23T01:19:34;8.40;99.90
5011;DHT22;2524;54.364;10.072;2024-02-23T01:21:59;8.60;99.90
5011;DHT22;2524;54.364;10.072;2024-02-23T01:24:28;8.40;99.90
5011;DHT22;2524;54.364;10.072;2024-02-23T01:26:58;8.30;99.90
5011;DHT22;2524;54.364;10.072;2024-02-23T01:29:26;8.50;99.90
5011;DHT22;2524;54.364;10.072;2024-02-23T01:31:51;8.30;99.90
5011;DHT22;2524;54.364;10.072;2024-02-23T01:34:17;8.20;99.90
5011;DHT22;2524;54.364;10.072;2024-02-23T01:36:43;8.20;99.90
5011;DHT22;2524;54.364;10.072;2024-02-23T01:39:09;8.20;99.90
5011;DHT22;2524;54.364;10.072;2024-02-23T01:41:36;7.90;99.90
5011;DHT22;2524;54.364;10.072;2024-02-23T01:44:02;7.90;99.90
5011;DHT22;2524;54.364;10.072;2024-02-23T01:46:27;7.80;99.90
5011;DHT22;2524;54.364;10.072;2024-02-23T01:48:53;7.80;99.90
5011;DHT22;2524;54.364;10.072;2024-02-23T01:51:19;7.70;99.90
5011;DHT22;2524;54.364;10.072;2024-02-23T01:53:45;7.90;99.90
5011;DHT22;2524;54.364;10.072;2024-02-23T01:56:12;7.80;99.90
5011;DHT22;2524;54.364;10.072;2024-02-23T01:58:43;7.60;99.90
5011;DHT22;2524;54.364;10.072;2024-02-23T02:01:08;7.60;99.90
5011;DHT22;2524;54.364;10.072;2024-02-23T02:03:35;7.60;99.90
5011;DHT22;2524;54.364;10.072;2024-02-23T02:06:01;7.50;99.90
5011;DHT22;2524;54.364;10.072;2024-02-23T02:08:28;7.50;99.90
5011;DHT22;2524;54.364;10.072;2024-02-23T02:10:53;7.60;99.90
5011;DHT22;2524;54.364;10.072;2024-02-23T02:13:19;7.50;99.90
5011;DHT22;2524;54.364;10.072;2024-02-23T02:15:44;7.40;99.90
5011;DHT22;2524;54.364;10.072;2024-02-23T02:18:10;7.40;99.90
5011;DHT22;2524;54.364;10.072;2024-02-23T02:20:36;7.50;99.90
5011;DHT22;2524;54.364;10.072;2024-02-23T02:23:03;7.40;99.90
5011;DHT22;2524;54.364;10.072;2024-02-23T02:25:29;7.30;99.90
5011;DHT22;2524;54.364;10.072;2024-02-23T02:27:54;7.30;99.90
5011;DHT22;2524;54.364;10.072;2024-02-23T02:30:20;7.20;99.90
5011;DHT22;2524;54.364;10.072;2024-02-23T02:32:45;7.20;99.90
5011;DHT22;2524;54.364;10.072;2024-02-23T02:35:11;7.30;99.90
5011;DHT22;2524;54.364;10.072;2024-02-23T02:37:40;7.30;99.90
5011;DHT22;2524;54.364;10.072;2024-02-23T02:40:06;7.20;99.90
5011;DHT22;2524;54.364;10.072;2024-02-23T02:42:33;7.00;99.90
5011;DHT22;2524;54.364;10.072;2024-02-23T02:44:58;7.00;99.90
5011;DHT22;2524;54.364;10.072;2024-02-23T02:47:24;6.90;99.90
5011;DHT22;2524;54.364;10.072;2024-02-23T02:49:50;7.10;99.90
5011;DHT22;2524;54.364;10.072;2024-02-23T02:52:16;6.90;99.90
5011;DHT22;2524;54.364;10.072;2024-02-23T02:54:42;6.90;99.90
5011;DHT22;2524;54.364;10.072;2024-02-23T02:57:07;7.00;99.90
5011;DHT22;2524;54.364;10.072;2024-02-23T02:59:36;6.80;99.90
5011;DHT22;2524;54.364;10.072;2024-02-23T03:02:02;6.80;99.90
5011;DHT22;2524;54.364;10.072;2024-02-23T03:04:27;6.80;99.90
5011;DHT22;2524;54.364;10.072;2024-02-23T03:06:53;6.80;99.90
5011;DHT22;2524;54.364;10.072;2024-02-23T03:09:18;6.80;99.90
5011;DHT22;2524;54.364;10.072;2024-02-23T03:11:44;6.70;99.90
5011;DHT22;2524;54.364;10.072;2024-02-23T03:14:09;6.70;99.90
5011;DHT22;2524;54.364;10.072;2024-02-23T03:16:35;6.80;99.90
5011;DHT22;2524;54.364;10.072;2024-02-23T03:19:03;6.70;99.90
5011;DHT22;2524;54.364;10.072;2024-02-23T03:21:28;6.70;99.90
5011;DHT22;2524;54.364;10.072;2024-02-23T03:23:54;6.70;99.90
5011;DHT22;2524;54.364;10.072;2024-02-23T03:26:20;6.80;99.90
5011;DHT22;2524;54.364;10.072;2024-02-23T03:28:45;6.60;99.90
5011;DHT22;2524;54.364;10.072;2024-02-23T03:31:11;6.70;99.90
5011;DHT22;2524;54.364;10.072;2024-02-23T03:33:37;6.80;99.90
5011;DHT22;2524;54.364;10.072;2024-02-23T03:36:03;6.60;99.90
5011;DHT22;2524;54.364;10.072;2024-02-23T03:38:29;6.60;99.90
5011;DHT22;2524;54.364;10.072;2024-02-23T03:40:55;6.80;99.90
5011;DHT22;2524;54.364;10.072;2024-02-23T03:43:21;6.60;99.90
5011;DHT22;2524;54.364;10.072;2024-02-23T03:45:47;6.70;99.90
5011;DHT22;2524;54.364;10.072;2024-02-23T03:48:12;6.70;99.90
5011;DHT22;2524;54.364;10.072;2024-02-23T03:50:38;6.70;99.90
5011;DHT22;2524;54.364;10.072;2024-02-23T03:53:03;6.70;99.90
5011;DHT22;2524;54.364;10.072;2024-02-23T03:55:29;6.80;99.90
5011;DHT22;2524;54.364;10.072;2024-02-23T03:57:55;6.60;99.90
5011;DHT22;2524;54.364;10.072;2024-02-23T04:00:20;6.60;99.90
5011;DHT22;2524;54.364;10.072;2024-02-23T04:02:48;6.60;99.90
5011;DHT22;2524;54.364;10.072;2024-02-23T04:05:14;6.60;99.90
5011;DHT22;2524;54.364;10.072;2024-02-23T04:07:40;6.50;99.90
5011;DHT22;2524;54.364;10.072;2024-02-23T04:10:06;6.60;99.90
5011;DHT22;2524;54.364;10.072;2024-02-23T04:12:32;6.50;99.90
5011;DHT22;2524;54.364;10.072;2024-02-23T04:14:58;6.70;99.90
5011;DHT22;2524;54.364;10.072;2024-02-23T04:17:23;6.50;99.90
5011;DHT22;2524;54.364;10.072;2024-02-23T04:19:49;6.70;99.90
5011;DHT22;2524;54.364;10.072;2024-02-23T04:22:14;6.60;99.90
5011;DHT22;2524;54.364;10.072;2024-02-23T04:24:40;6.60;99.90
5011;DHT22;2524;54.364;10.072;2024-02-23T04:27:07;6.60;99.90
5011;DHT22;2524;54.364;10.072;2024-02-23T04:29:33;6.80;99.90
5011;DHT22;2524;54.364;10.072;2024-02-23T04:32:02;6.70;99.90
5011;DHT22;2524;54.364;10.072;2024-02-23T04:34:28;6.50;99.90
5011;DHT22;2524;54.364;10.072;2024-02-23T04:36:54;6.60;99.90
5011;DHT22;2524;54.364;10.072;2024-02-23T04:39:20;6.60;99.90
5011;DHT22;2524;54.364;10.072;2024-02-23T04:41:47;6.60;99.90
5011;DHT22;2524;54.364;10.072;2024-02-23T04:44:12;6.70;99.90
5011;DHT22;2524;54.364;10.072;2024-02-23T04:46:38;6.70;99.90
5011;DHT22;2524;54.364;10.072;2024-02-23T04:49:03;6.70;99.90
5011;DHT22;2524;54.364;10.072;2024-02-23T04:51:29;6.70;99.90
5011;DHT22;2524;54.364;10.072;2024-02-23T04:53:55;6.70;99.90
5011;DHT22;2524;54.364;10.072;2024-02-23T04:56:20;6.70;99.90
5011;DHT22;2524;54.364;10.072;2024-02-23T04:58:46;6.60;99.90
5011;DHT22;2524;54.364;10.072;2024-02-23T05:01:12;6.70;99.90
5011;DHT22;2524;54.364;10.072;2024-02-23T05:03:38;6.60;99.90
5011;DHT22;2524;54.364;10.072;2024-02-23T05:06:04;6.60;99.90
5011;DHT22;2524;54.364;10.072;2024-02-23T05:08:30;6.60;99.90
5011;DHT22;2524;54.364;10.072;2024-02-23T05:10:59;6.60;99.90
5011;DHT22;2524;54.364;10.072;2024-02-23T05:13:24;6.70;99.90
5011;DHT22;2524;54.364;10.072;2024-02-23T05:15:50;6.60;99.90
5011;DHT22;2524;54.364;10.072;2024-02-23T05:18:16;6.60;99.90
5011;DHT22;2524;54.364;10.072;2024-02-23T05:20:42;6.60;99.90
5011;DHT22;2524;54.364;10.072;2024-02-23T05:23:08;6.50;99.90
5011;DHT22;2524;54.364;10.072;2024-02-23T05:25:34;6.60;99.90
5011;DHT22;2524;54.364;10.072;2024-02-23T05:27:59;6.50;99.90
5011;DHT22;2524;54.364;10.072;2024-02-23T05:30:25;6.60;99.90
5011;DHT22;2524;54.364;10.072;2024-02-23T05:32:52;6.60;99.90
5011;DHT22;2524;54.364;10.072;2024-02-23T05:35:18;6.50;99.90
5011;DHT22;2524;54.364;10.072;2024-02-23T05:37:43;6.50;99.90
5011;DHT22;2524;54.364;10.072;2024-02-23T05:40:09;6.70;99.90
5011;DHT22;2524;54.364;10.072;2024-02-23T05:42:39;6.50;99.90
5011;DHT22;2524;54.364;10.072;2024-02-23T05:45:06;6.60;99.90
5011;DHT22;2524;54.364;10.072;2024-02-23T05:47:37;6.50;99.90
5011;DHT22;2524;54.364;10.072;2024-02-23T05:50:04;6.70;99.90
5011;DHT22;2524;54.364;10.072;2024-02-23T05:52:33;6.50;99.90
5011;DHT22;2524;54.364;10.072;2024-02-23T05:54:59;6.50;99.90
5011;DHT22;2524;54.364;10.072;2024-02-23T05:57:26;6.50;99.90
5011;DHT22;2524;54.364;10.072;2024-02-23T05:59:52;6.60;99.90
5011;DHT22;2524;54.364;10.072;2024-02-23T06:02:18;6.50;99.90
5011;DHT22;2524;54.364;10.072;2024-02-23T06:04:43;6.40;99.90
5011;DHT22;2524;54.364;10.072;2024-02-23T06:07:09;6.40;99.90
5011;DHT22;2524;54.364;10.072;2024-02-23T06:09:35;6.50;99.90
5011;DHT22;2524;54.364;10.072;2024-02-23T06:12:00;6.40;99.90
5011;DHT22;2524;54.364;10.072;2024-02-23T06:14:26;6.40;99.90
5011;DHT22;2524;54.364;10.072;2024-02-23T06:16:52;6.40;99.90
5011;DHT22;2524;54.364;10.072;2024-02-23T06:19:17;6.50;99.90
5011;DHT22;2524;54.364;10.072;2024-02-23T06:21:43;6.50;99.90
5011;DHT22;2524;54.364;10.072;2024-02-23T06:24:12;6.30;99.90
5011;DHT22;2524;54.364;10.072;2024-02-23T06:26:38;6.30;99.90
5011;DHT22;2524;54.364;10.072;2024-02-23T06:29:03;6.40;99.90
5011;DHT22;2524;54.364;10.072;2024-02-23T06:31:31;6.40;99.90
5011;DHT22;2524;54.364;10.072;2024-02-23T06:33:59;6.40;99.90
5011;DHT22;2524;54.364;10.072;2024-02-23T06:36:24;6.50;99.90
5011;DHT22;2524;54.364;10.072;2024-02-23T06:38:50;6.50;99.90
5011;DHT22;2524;54.364;10.072;2024-02-23T06:41:15;6.40;99.90
5011;DHT22;2524;54.364;10.072;2024-02-23T06:43:41;6.40;99.90
5011;DHT22;2524;54.364;10.072;2024-02-23T06:46:08;6.40;99.90
5011;DHT22;2524;54.364;10.072;2024-02-23T06:48:34;6.60;99.90
5011;DHT22;2524;54.364;10.072;2024-02-23T06:51:00;6.40;99.90
5011;DHT22;2524;54.364;10.072;2024-02-23T06:53:26;6.40;99.90
5011;DHT22;2524;54.364;10.072;2024-02-23T06:55:51;6.40;99.90
5011;DHT22;2524;54.364;10.072;2024-02-23T06:58:17;6.40;99.90
5011;DHT22;2524;54.364;10.072;2024-02-23T07:00:43;6.40;99.90
5011;DHT22;2524;54.364;10.072;2024-02-23T07:03:09;6.60;99.90
5011;DHT22;2524;54.364;10.072;2024-02-23T07:05:35;6.40;99.90
5011;DHT22;2524;54.364;10.072;2024-02-23T07:08:01;6.40;99.90
5011;DHT22;2524;54.364;10.072;2024-02-23T07:10:27;6.40;99.90
5011;DHT22;2524;54.364;10.072;2024-02-23T07:12:53;6.40;99.90
5011;DHT22;2524;54.364;10.072;2024-02-23T07:15:20;6.50;99.90
5011;DHT22;2524;54.364;10.072;2024-02-23T07:17:46;6.40;99.90
5011;DHT22;2524;54.364;10.072;2024-02-23T07:20:11;6.60;99.90
5011;DHT22;2524;54.364;10.072;2024-02-23T07:22:37;6.70;99.90
5011;DHT22;2524;54.364;10.072;2024-02-23T07:25:03;6.70;99.90
5011;DHT22;2524;54.364;10.072;2024-02-23T07:27:30;6.50;99.90
5011;DHT22;2524;54.364;10.072;2024-02-23T07:29:56;6.50;99.90
5011;DHT22;2524;54.364;10.072;2024-02-23T07:32:21;6.50;99.90
5011;DHT22;2524;54.364;10.072;2024-02-23T07:34:47;6.50;99.90
5011;DHT22;2524;54.364;10.072;2024-02-23T07:37:13;6.50;99.90
5011;DHT22;2524;54.364;10.072;2024-02-23T07:39:39;6.70;99.90
5011;DHT22;2524;54.364;10.072;2024-02-23T07:42:05;6.70;99.90
5011;DHT22;2524;54.364;10.072;2024-02-23T07:44:31;6.50;99.90
5011;DHT22;2524;54.364;10.072;2024-02-23T07:46:57;6.40;99.90
5011;DHT22;2524;54.364;10.072;2024-02-23T07:49:24;6.30;99.90
5011;DHT22;2524;54.364;10.072;2024-02-23T07:51:50;6.30;99.90
5011;DHT22;2524;54.364;10.072;2024-02-23T07:54:16;6.20;99.90
5011;DHT22;2524;54.364;10.072;2024-02-23T07:56:41;6.20;99.90
5011;DHT22;2524;54.364;10.072;2024-02-23T07:59:07;6.10;99.90
5011;DHT22;2524;54.364;10.072;2024-02-23T08:01:33;6.30;99.90
5011;DHT22;2524;54.364;10.072;2024-02-23T08:03:59;6.10;99.90
5011;DHT22;2524;54.364;10.072;2024-02-23T08:06:25;6.10;99.90
5011;DHT22;2524;54.364;10.072;2024-02-23T08:08:51;6.20;99.90
5011;DHT22;2524;54.364;10.072;2024-02-23T08:11:19;6.10;99.90
5011;DHT22;2524;54.364;10.072;2024-02-23T08:13:44;6.40;99.90
5011;DHT22;2524;54.364;10.072;2024-02-23T08:16:10;6.20;99.90
5011;DHT22;2524;54.364;10.072;2024-02-23T08:18:36;6.30;99.90
5011;DHT22;2524;54.364;10.072;2024-02-23T08:21:02;6.20;99.90
5011;DHT22;2524;54.364;10.072;2024-02-23T08:23:28;6.30;99.90
5011;DHT22;2524;54.364;10.072;2024-02-23T08:25:55;6.40;99.90
5011;DHT22;2524;54.364;10.072;2024-02-23T08:28:23;6.40;99.90
5011;DHT22;2524;54.364;10.072;2024-02-23T08:30:48;6.30;99.90
5011;DHT22;2524;54.364;10.072;2024-02-23T08:33:14;6.40;99.90
5011;DHT22;2524;54.364;10.072;2024-02-23T08:35:40;6.30;99.90
5011;DHT22;2524;54.364;10.072;2024-02-23T08:38:05;6.40;99.90
5011;DHT22;2524;54.364;10.072;2024-02-23T08:40:31;6.40;99.90
5011;DHT22;2524;54.364;10.072;2024-02-23T08:42:57;6.40;99.90
5011;DHT22;2524;54.364;10.072;2024-02-23T08:45:22;6.60;99.90
5011;DHT22;2524;54.364;10.072;2024-02-23T08:47:48;6.40;99.90
5011;DHT22;2524;54.364;10.072;2024-02-23T08:50:13;6.60;99.90
5011;DHT22;2524;54.364;10.072;2024-02-23T08:52:39;6.50;99.90
5011;DHT22;2524;54.364;10.072;2024-02-23T08:55:05;6.70;99.90
5011;DHT22;2524;54.364;10.072;2024-02-23T08:57:31;6.50;99.90
5011;DHT22;2524;54.364;10.072;2024-02-23T08:59:56;6.50;99.90
5011;DHT22;2524;54.364;10.072;2024-02-23T09:02:24;6.50;99.90
5011;DHT22;2524;54.364;10.072;2024-02-23T09:04:49;6.60;99.90
5011;DHT22;2524;54.364;10.072;2024-02-23T09:07:15;6.60;99.90
5011;DHT22;2524;54.364;10.072;2024-02-23T09:09:40;6.60;99.90
5011;DHT22;2524;54.364;10.072;2024-02-23T09:12:06;6.60;99.90
5011;DHT22;2524;54.364;10.072;2024-02-23T09:14:36;6.70;99.90
5011;DHT22;2524;54.364;10.072;2024-02-23T09:17:03;6.70;99.90
5011;DHT22;2524;54.364;10.072;2024-02-23T09:19:29;6.70;99.90
5011;DHT22;2524;54.364;10.072;2024-02-23T09:21:55;6.70;99.90
5011;DHT22;2524;54.364;10.072;2024-02-23T09:24:21;6.70;99.90
5011;DHT22;2524;54.364;10.072;2024-02-23T09:26:47;6.90;99.90
5011;DHT22;2524;54.364;10.072;2024-02-23T09:29:13;6.80;99.90
5011;DHT22;2524;54.364;10.072;2024-02-23T09:31:39;6.90;99.90
5011;DHT22;2524;54.364;10.072;2024-02-23T09:34:04;7.20;99.90
5011;DHT22;2524;54.364;10.072;2024-02-23T09:36:30;7.10;99.90
5011;DHT22;2524;54.364;10.072;2024-02-23T09:38:56;7.20;99.90
5011;DHT22;2524;54.364;10.072;2024-02-23T09:41:23;7.30;99.90
5011;DHT22;2524;54.364;10.072;2024-02-23T09:43:49;7.40;99.90
5011;DHT22;2524;54.364;10.072;2024-02-23T09:46:18;7.50;99.90
5011;DHT22;2524;54.364;10.072;2024-02-23T09:48:45;7.40;99.90
5011;DHT22;2524;54.364;10.072;2024-02-23T09:51:12;7.50;99.90
5011;DHT22;2524;54.364;10.072;2024-02-23T09:53:38;7.70;99.90
5011;DHT22;2524;54.364;10.072;2024-02-23T09:56:05;7.70;99.90
5011;DHT22;2524;54.364;10.072;2024-02-23T09:58:32;7.60;99.90
5011;DHT22;2524;54.364;10.072;2024-02-23T10:01:02;7.60;99.90
5011;DHT22;2524;54.364;10.072;2024-02-23T10:03:28;7.70;99.90
5011;DHT22;2524;54.364;10.072;2024-02-23T10:05:56;7.70;99.90
5011;DHT22;2524;54.364;10.072;2024-02-23T10:08:22;8.00;99.90
5011;DHT22;2524;54.364;10.072;2024-02-23T10:10:47;7.90;99.90
5011;DHT22;2524;54.364;10.072;2024-02-23T10:13:21;8.10;99.90
5011;DHT22;2524;54.364;10.072;2024-02-23T10:15:47;7.90;99.90
5011;DHT22;2524;54.364;10.072;2024-02-23T10:18:13;8.00;99.90
5011;DHT22;2524;54.364;10.072;2024-02-23T10:20:40;8.00;99.90
5011;DHT22;2524;54.364;10.072;2024-02-23T10:23:07;8.10;99.90
5011;DHT22;2524;54.364;10.072;2024-02-23T10:25:37;8.10;99.90
5011;DHT22;2524;54.364;10.072;2024-02-23T10:28:03;7.90;99.90
5011;DHT22;2524;54.364;10.072;2024-02-23T10:30:29;7.80;99.90
5011;DHT22;2524;54.364;10.072;2024-02-23T10:32:56;7.80;99.90
5011;DHT22;2524;54.364;10.072;2024-02-23T10:35:23;7.80;99.90
5011;DHT22;2524;54.364;10.072;2024-02-23T10:37:49;8.00;99.90
5011;DHT22;2524;54.364;10.072;2024-02-23T10:40:19;7.80;99.90
5011;DHT22;2524;54.364;10.072;2024-02-23T10:42:46;7.80;99.90
5011;DHT22;2524;54.364;10.072;2024-02-23T10:45:16;7.80;99.90
5011;DHT22;2524;54.364;10.072;2024-02-23T10:47:42;7.80;99.90
5011;DHT22;2524;54.364;10.072;2024-02-23T10:50:09;7.80;99.90
5011;DHT22;2524;54.364;10.072;2024-02-23T10:52:35;7.80;99.90
5011;DHT22;2524;54.364;10.072;2024-02-23T10:55:01;7.80;99.90
5011;DHT22;2524;54.364;10.072;2024-02-23T10:57:32;7.80;99.90
5011;DHT22;2524;54.364;10.072;2024-02-23T11:00:00;7.80;99.90
5011;DHT22;2524;54.364;10.072;2024-02-23T11:02:28;8.00;99.90
5011;DHT22;2524;54.364;10.072;2024-02-23T11:04:55;7.80;99.90
5011;DHT22;2524;54.364;10.072;2024-02-23T11:07:22;7.80;99.90
5011;DHT22;2524;54.364;10.072;2024-02-23T11:09:54;7.90;99.90
5011;DHT22;2524;54.364;10.072;2024-02-23T11:12:25;7.80;99.90
5011;DHT22;2524;54.364;10.072;2024-02-23T11:14:51;7.80;99.90
5011;DHT22;2524;54.364;10.072;2024-02-23T11:17:21;7.80;99.90
5011;DHT22;2524;54.364;10.072;2024-02-23T11:19:49;7.80;99.90
5011;DHT22;2524;54.364;10.072;2024-02-23T11:22:27;7.90;99.90
5011;DHT22;2524;54.364;10.072;2024-02-23T11:24:59;7.80;99.90
5011;DHT22;2524;54.364;10.072;2024-02-23T11:27:24;7.90;99.90
5011;DHT22;2524;54.364;10.072;2024-02-23T11:30:08;7.90;99.90
5011;DHT22;2524;54.364;10.072;2024-02-23T11:32:43;7.90;99.90
5011;DHT22;2524;54.364;10.072;2024-02-23T11:35:16;7.90;99.90
5011;DHT22;2524;54.364;10.072;2024-02-23T11:37:56;8.10;99.90
5011;DHT22;2524;54.364;10.072;2024-02-23T11:40:30;8.00;99.90
5011;DHT22;2524;54.364;10.072;2024-02-23T11:42:56;8.00;99.90
5011;DHT22;2524;54.364;10.072;2024-02-23T11:45:22;8.00;99.90
5011;DHT22;2524;54.364;10.072;2024-02-23T11:47:48;8.00;99.90
5011;DHT22;2524;54.364;10.072;2024-02-23T11:50:14;8.00;99.90
5011;DHT22;2524;54.364;10.072;2024-02-23T11:52:41;8.10;99.90
5011;DHT22;2524;54.364;10.072;2024-02-23T11:55:07;8.20;99.90
5011;DHT22;2524;54.364;10.072;2024-02-23T11:57:36;8.10;99.90
5011;DHT22;2524;54.364;10.072;2024-02-23T12:00:04;8.00;99.90
5011;DHT22;2524;54.364;10.072;2024-02-23T12:02:32;8.10;99.90
5011;DHT22;2524;54.364;10.072;2024-02-23T12:04:58;8.10;99.90
5011;DHT22;2524;54.364;10.072;2024-02-23T12:07:23;8.00;99.90
5011;DHT22;2524;54.364;10.072;2024-02-23T12:09:52;8.10;99.90
5011;DHT22;2524;54.364;10.072;2024-02-23T12:12:17;8.10;99.90
5011;DHT22;2524;54.364;10.072;2024-02-23T12:14:44;8.20;99.90
5011;DHT22;2524;54.364;10.072;2024-02-23T12:17:09;8.40;99.90
5011;DHT22;2524;54.364;10.072;2024-02-23T12:19:39;8.40;99.90
5011;DHT22;2524;54.364;10.072;2024-02-23T12:22:05;8.50;99.90
5011;DHT22;2524;54.364;10.072;2024-02-23T12:24:31;8.40;99.90
5011;DHT22;2524;54.364;10.072;2024-02-23T12:26:57;8.50;99.90
5011;DHT22;2524;54.364;10.072;2024-02-23T12:29:23;8.60;99.90
5011;DHT22;2524;54.364;10.072;2024-02-23T12:31:49;8.60;99.90
5011;DHT22;2524;54.364;10.072;2024-02-23T12:34:16;8.50;99.90
5011;DHT22;2524;54.364;10.072;2024-02-23T12:36:42;8.40;99.90
5011;DHT22;2524;54.364;10.072;2024-02-23T12:39:08;8.40;99.90
5011;DHT22;2524;54.364;10.072;2024-02-23T12:41:33;8.40;99.90
5011;DHT22;2524;54.364;10.072;2024-02-23T12:43:59;8.60;99.90
5011;DHT22;2524;54.364;10.072;2024-02-23T12:46:24;8.40;99.90
5011;DHT22;2524;54.364;10.072;2024-02-23T12:48:50;8.40;99.90
5011;DHT22;2524;54.364;10.072;2024-02-23T12:51:16;8.40;99.90
5011;DHT22;2524;54.364;10.072;2024-02-23T12:53:42;8.40;99.90
5011;DHT22;2524;54.364;10.072;2024-02-23T12:56:11;8.50;99.90
5011;DHT22;2524;54.364;10.072;2024-02-23T12:58:41;8.50;99.90
5011;DHT22;2524;54.364;10.072;2024-02-23T13:01:07;8.40;99.90
5011;DHT22;2524;54.364;10.072;2024-02-23T13:03:34;8.40;99.90
5011;DHT22;2524;54.364;10.072;2024-02-23T13:06:00;8.50;99.90
5011;DHT22;2524;54.364;10.072;2024-02-23T13:08:26;8.40;99.90
5011;DHT22;2524;54.364;10.072;2024-02-23T13:10:52;8.50;99.90
5011;DHT22;2524;54.364;10.072;2024-02-23T13:13:19;8.30;99.90
5011;DHT22;2524;54.364;10.072;2024-02-23T13:15:46;8.50;99.90
5011;DHT22;2524;54.364;10.072;2024-02-23T13:18:12;8.40;99.90
5011;DHT22;2524;54.364;10.072;2024-02-23T13:20:38;8.30;99.90
5011;DHT22;2524;54.364;10.072;2024-02-23T13:23:05;8.40;99.90
5011;DHT22;2524;54.364;10.072;2024-02-23T13:25:34;8.40;99.90
5011;DHT22;2524;54.364;10.072;2024-02-23T13:27:59;8.30;99.90
5011;DHT22;2524;54.364;10.072;2024-02-23T13:30:25;8.50;99.90
5011;DHT22;2524;54.364;10.072;2024-02-23T13:32:51;8.30;99.90
5011;DHT22;2524;54.364;10.072;2024-02-23T13:35:17;8.40;99.90
5011;DHT22;2524;54.364;10.072;2024-02-23T13:37:43;8.30;99.90
5011;DHT22;2524;54.364;10.072;2024-02-23T13:40:09;8.50;99.90
5011;DHT22;2524;54.364;10.072;2024-02-23T13:42:36;8.30;99.90
5011;DHT22;2524;54.364;10.072;2024-02-23T13:45:07;8.50;99.90
5011;DHT22;2524;54.364;10.072;2024-02-23T13:47:33;8.30;99.90
5011;DHT22;2524;54.364;10.072;2024-02-23T13:49:59;8.30;99.90
5011;DHT22;2524;54.364;10.072;2024-02-23T13:52:25;8.30;99.90
5011;DHT22;2524;54.364;10.072;2024-02-23T13:54:51;8.50;99.90
5011;DHT22;2524;54.364;10.072;2024-02-23T13:57:16;8.40;99.90
5011;DHT22;2524;54.364;10.072;2024-02-23T13:59:42;8.50;99.90
5011;DHT22;2524;54.364;10.072;2024-02-23T14:02:07;8.40;99.90
5011;DHT22;2524;54.364;10.072;2024-02-23T14:04:33;8.40;99.90
5011;DHT22;2524;54.364;10.072;2024-02-23T14:06:59;8.40;99.90
5011;DHT22;2524;54.364;10.072;2024-02-23T14:09:24;8.40;99.90
5011;DHT22;2524;54.364;10.072;2024-02-23T14:11:50;8.40;99.90
5011;DHT22;2524;54.364;10.072;2024-02-23T14:14:16;8.60;99.90
5011;DHT22;2524;54.364;10.072;2024-02-23T14:16:42;8.40;99.90
5011;DHT22;2524;54.364;10.072;2024-02-23T14:19:07;8.40;99.90
5011;DHT22;2524;54.364;10.072;2024-02-23T14:21:33;8.60;99.90
5011;DHT22;2524;54.364;10.072;2024-02-23T14:24:01;8.50;99.90
5011;DHT22;2524;54.364;10.072;2024-02-23T14:26:27;8.50;99.90
5011;DHT22;2524;54.364;10.072;2024-02-23T14:28:52;8.50;99.90
5011;DHT22;2524;54.364;10.072;2024-02-23T14:31:18;8.50;99.90
5011;DHT22;2524;54.364;10.072;2024-02-23T14:33:43;8.60;99.90
5011;DHT22;2524;54.364;10.072;2024-02-23T14:36:09;8.70;99.90
5011;DHT22;2524;54.364;10.072;2024-02-23T14:38:35;8.60;99.60
5011;DHT22;2524;54.364;10.072;2024-02-23T14:41:00;8.70;99.90
5011;DHT22;2524;54.364;10.072;2024-02-23T14:43:26;8.80;99.90
5011;DHT22;2524;54.364;10.072;2024-02-23T14:45:51;8.60;99.80
5011;DHT22;2524;54.364;10.072;2024-02-23T14:48:18;8.60;99.90
5011;DHT22;2524;54.364;10.072;2024-02-23T14:50:44;8.70;99.90
5011;DHT22;2524;54.364;10.072;2024-02-23T14:53:09;8.60;99.90
5011;DHT22;2524;54.364;10.072;2024-02-23T14:55:36;8.70;99.90
5011;DHT22;2524;54.364;10.072;2024-02-23T14:58:02;8.70;99.90
5011;DHT22;2524;54.364;10.072;2024-02-23T15:00:28;8.80;99.50
5011;DHT22;2524;54.364;10.072;2024-02-23T15:02:56;8.80;99.90
5011;DHT22;2524;54.364;10.072;2024-02-23T15:05:22;8.80;99.50
5011;DHT22;2524;54.364;10.072;2024-02-23T15:07:48;8.90;99.50
5011;DHT22;2524;54.364;10.072;2024-02-23T15:10:14;8.70;99.20
5011;DHT22;2524;54.364;10.072;2024-02-23T15:12:39;8.60;99.20
5011;DHT22;2524;54.364;10.072;2024-02-23T15:15:05;8.80;99.50
5011;DHT22;2524;54.364;10.072;2024-02-23T15:17:32;8.50;99.50
5011;DHT22;2524;54.364;10.072;2024-02-23T15:19:58;8.60;99.40
5011;DHT22;2524;54.364;10.072;2024-02-23T15:22:23;8.70;99.60
5011;DHT22;2524;54.364;10.072;2024-02-23T15:24:51;8.50;99.70
5011;DHT22;2524;54.364;10.072;2024-02-23T15:27:17;8.50;99.30
5011;DHT22;2524;54.364;10.072;2024-02-23T15:29:43;8.50;99.40
5011;DHT22;2524;54.364;10.072;2024-02-23T15:32:09;8.50;99.80
5011;DHT22;2524;54.364;10.072;2024-02-23T15:34:38;8.50;99.10
5011;DHT22;2524;54.364;10.072;2024-02-23T15:37:04;8.60;99.50
5011;DHT22;2524;54.364;10.072;2024-02-23T15:39:29;8.50;99.00
5011;DHT22;2524;54.364;10.072;2024-02-23T15:41:55;8.60;99.20
5011;DHT22;2524;54.364;10.072;2024-02-23T15:44:21;8.60;99.30
5011;DHT22;2524;54.364;10.072;2024-02-23T15:46:46;8.50;98.80
5011;DHT22;2524;54.364;10.072;2024-02-23T15:49:12;8.70;98.80
5011;DHT22;2524;54.364;10.072;2024-02-23T15:51:38;8.40;98.80
5011;DHT22;2524;54.364;10.072;2024-02-23T15:54:04;8.40;99.00
5011;DHT22;2524;54.364;10.072;2024-02-23T15:56:30;8.40;98.60